createdAt,value
2018-01-31T01:52:20.700Z,1005.58
2018-01-31T01:53:14.838Z,1005.52
2018-01-31T01:54:20.349Z,1005.46
2018-01-31T01:55:25.860Z,1005.48
2018-01-31T01:56:31.371Z,1005.47
2018-01-31T01:57:36.882Z,1005.45
2018-01-31T01:58:42.396Z,1005.39
2018-01-31T01:59:47.904Z,1005.35
2018-01-31T02:00:53.407Z,1005.33
2018-01-31T02:01:58.914Z,1005.29
2018-01-31T02:03:04.435Z,1005.18
2018-01-31T02:04:09.939Z,1005.19
2018-01-31T02:05:15.439Z,1005.24
2018-01-31T02:06:20.951Z,1005.19
2018-01-31T02:07:26.462Z,1005.18
2018-01-31T02:08:31.967Z,1005.10
2018-01-31T02:09:37.477Z,1005.07
2018-01-31T02:10:42.987Z,1004.99
2018-01-31T02:11:48.498Z,1004.96
2018-01-31T02:12:54.013Z,1004.95
2018-01-31T02:13:59.513Z,1004.91
2018-01-31T02:15:05.027Z,1004.84
2018-01-31T02:16:10.539Z,1004.79
2018-01-31T02:17:16.079Z,1004.75
2018-01-31T02:18:21.556Z,1004.71
2018-01-31T02:19:27.061Z,1004.70
2018-01-31T02:20:32.578Z,1004.61
2018-01-31T02:21:38.138Z,1004.60
2018-01-31T02:22:43.591Z,1004.60
2018-01-31T02:23:49.100Z,1004.57
2018-01-31T02:24:54.616Z,1004.46
2018-01-31T02:26:00.119Z,1004.51
2018-01-31T02:27:05.630Z,1004.42
2018-01-31T02:28:11.144Z,1004.40
2018-01-31T02:29:16.649Z,1004.36
2018-01-31T02:30:22.158Z,1004.31
2018-01-31T02:31:27.683Z,1004.25
2018-01-31T02:32:33.179Z,1004.23
2018-01-31T02:33:38.683Z,1004.18
2018-01-31T02:34:44.191Z,1004.21
2018-01-31T02:35:49.705Z,1004.16
2018-01-31T02:36:55.218Z,1004.12
2018-01-31T02:38:00.727Z,1004.11
2018-01-31T02:39:06.231Z,1004.06
2018-01-31T02:40:11.816Z,1004.03
2018-01-31T02:41:17.257Z,1003.99
2018-01-31T02:42:22.769Z,1003.94
2018-01-31T02:43:28.267Z,1003.93
2018-01-31T02:44:33.780Z,1003.88
2018-01-31T02:45:39.291Z,1003.86
2018-01-31T02:46:44.799Z,1003.84
2018-01-31T02:47:50.316Z,1003.77
2018-01-31T02:48:55.821Z,1003.82
2018-01-31T02:50:01.327Z,1003.86
2018-01-31T02:51:06.845Z,1003.81
2018-01-31T02:52:12.342Z,1003.81
2018-01-31T02:53:17.853Z,1003.79
2018-01-31T02:54:23.363Z,1003.77
2018-01-31T02:55:28.873Z,1003.71
2018-01-31T02:56:34.390Z,1003.75
2018-01-31T02:57:39.895Z,1003.74
2018-01-31T02:58:45.403Z,1003.73
2018-01-31T02:59:50.910Z,1003.71
2018-01-31T03:00:56.417Z,1003.71
2018-01-31T03:02:01.935Z,1003.67
2018-01-31T03:03:07.437Z,1003.62
2018-01-31T03:04:12.951Z,1003.57
2018-01-31T03:05:18.563Z,1003.53
2018-01-31T03:06:23.967Z,1003.52
2018-01-31T03:07:29.474Z,1003.50
2018-01-31T03:08:35.085Z,1003.44
2018-01-31T03:09:40.497Z,1003.34
2018-01-31T03:10:46.008Z,1003.36
2018-01-31T03:11:51.515Z,1003.33
2018-01-31T03:12:57.032Z,1003.31
2018-01-31T03:14:02.531Z,1003.25
2018-01-31T03:15:08.048Z,1003.28
2018-01-31T03:16:13.553Z,1003.24
2018-01-31T03:17:19.062Z,1003.18
2018-01-31T03:18:24.571Z,1003.17
2018-01-31T03:19:30.081Z,1003.13
2018-01-31T03:20:35.593Z,1003.11
2018-01-31T03:21:41.100Z,1003.06
2018-01-31T03:22:46.612Z,1003.02
2018-01-31T03:23:52.126Z,1002.96
2018-01-31T03:24:57.628Z,1003.03
2018-01-31T03:26:03.145Z,1002.99
2018-01-31T03:27:08.647Z,1002.95
2018-01-31T03:28:14.165Z,1002.90
2018-01-31T03:29:19.671Z,1002.90
2018-01-31T03:30:25.193Z,1002.85
2018-01-31T03:31:30.684Z,1002.79
2018-01-31T03:32:36.198Z,1002.81
2018-01-31T03:33:41.700Z,1002.77
2018-01-31T03:34:47.212Z,1002.77
2018-01-31T03:35:52.761Z,1002.75
2018-01-31T03:36:58.234Z,1002.69
2018-01-31T03:38:03.747Z,1002.70
2018-01-31T03:39:09.251Z,1002.66
2018-01-31T03:40:14.763Z,1002.60
2018-01-31T03:41:20.272Z,1002.64
2018-01-31T03:42:25.782Z,1002.65
2018-01-31T03:43:31.292Z,1002.67
2018-01-31T03:44:36.811Z,1002.55
2018-01-31T03:45:42.312Z,1002.50
2018-01-31T03:46:47.817Z,1002.46
2018-01-31T03:47:53.330Z,1002.42
2018-01-31T03:48:58.844Z,1002.32
2018-01-31T03:50:04.344Z,1002.28
2018-01-31T03:51:09.860Z,1002.30
2018-01-31T03:52:15.370Z,1002.27
2018-01-31T03:53:20.882Z,1002.28
2018-01-31T03:54:26.391Z,1002.27
2018-01-31T03:55:31.892Z,1002.27
2018-01-31T03:56:37.408Z,1002.23
2018-01-31T03:57:42.915Z,1002.19
2018-01-31T03:58:48.426Z,1002.20
2018-01-31T03:59:53.933Z,1002.14
2018-01-31T04:00:59.441Z,1002.14
2018-01-31T04:02:04.958Z,1002.09
2018-01-31T04:03:10.470Z,1002.09
2018-01-31T04:04:15.971Z,1002.01
2018-01-31T04:05:21.481Z,1002.04
2018-01-31T04:06:26.999Z,1001.94
2018-01-31T04:07:32.501Z,1001.90
2018-01-31T04:08:38.128Z,1001.97
2018-01-31T04:09:43.519Z,1001.92
2018-01-31T04:10:49.034Z,1001.94
2018-01-31T04:11:54.542Z,1001.84
2018-01-31T04:13:00.053Z,1001.85
2018-01-31T04:14:05.561Z,1001.84
2018-01-31T04:15:11.075Z,1001.83
2018-01-31T04:16:16.582Z,1001.86
2018-01-31T04:17:22.097Z,1001.83
2018-01-31T04:18:27.608Z,1001.78
2018-01-31T04:19:33.113Z,1001.78
2018-01-31T04:20:38.622Z,1001.79
2018-01-31T04:21:44.131Z,1001.75
2018-01-31T04:22:49.641Z,1001.71
2018-01-31T04:23:55.152Z,1001.78
2018-01-31T04:25:00.667Z,1001.73
2018-01-31T04:26:06.176Z,1001.70
2018-01-31T04:27:11.684Z,1001.64
2018-01-31T04:28:17.190Z,1001.65
2018-01-31T04:29:22.702Z,1001.65
2018-01-31T04:30:28.212Z,1001.61
2018-01-31T04:31:33.720Z,1001.50
2018-01-31T04:32:39.229Z,1001.53
2018-01-31T04:33:44.832Z,1001.47
2018-01-31T04:34:50.257Z,1001.45
2018-01-31T04:35:55.765Z,1001.41
2018-01-31T04:37:01.279Z,1001.47
2018-01-31T04:38:06.781Z,1001.36
2018-01-31T04:39:12.299Z,1001.39
2018-01-31T04:40:17.799Z,1001.37
2018-01-31T04:41:23.316Z,1001.37
2018-01-31T04:42:28.821Z,1001.32
2018-01-31T04:43:34.331Z,1001.32
2018-01-31T04:44:39.841Z,1001.32
2018-01-31T04:45:45.358Z,1001.28
2018-01-31T04:46:50.865Z,1001.25
2018-01-31T04:47:56.372Z,1001.32
2018-01-31T04:49:01.883Z,1001.29
2018-01-31T04:50:07.392Z,1001.24
2018-01-31T04:51:12.906Z,1001.24
2018-01-31T04:52:18.419Z,1001.20
2018-01-31T04:53:23.929Z,1001.18
2018-01-31T04:54:29.435Z,1001.18
2018-01-31T04:55:34.948Z,1001.14
2018-01-31T04:56:40.461Z,1001.16
2018-01-31T04:57:45.965Z,1001.08
2018-01-31T04:58:51.477Z,1001.05
2018-01-31T04:59:56.989Z,1000.99
2018-01-31T05:01:02.502Z,1000.91
2018-01-31T05:02:08.008Z,1000.94
2018-01-31T05:03:13.516Z,1000.93
2018-01-31T05:04:19.122Z,1000.89
2018-01-31T05:05:24.541Z,1000.92
2018-01-31T05:06:30.051Z,1000.90
2018-01-31T05:07:35.573Z,1000.92
2018-01-31T05:08:41.071Z,1000.85
2018-01-31T05:09:46.580Z,1000.84
2018-01-31T05:10:52.093Z,1000.87
2018-01-31T05:11:57.603Z,1000.79
2018-01-31T05:13:03.120Z,1000.87
2018-01-31T05:14:08.628Z,1000.81
2018-01-31T05:15:14.150Z,1000.76
2018-01-31T05:16:19.654Z,1000.66
2018-01-31T05:17:25.154Z,1000.78
2018-01-31T05:18:30.663Z,1000.75
2018-01-31T05:19:36.176Z,1000.67
2018-01-31T05:20:41.707Z,1000.67
2018-01-31T05:21:47.198Z,1000.68
2018-01-31T05:22:52.718Z,1000.70
2018-01-31T05:23:58.217Z,1000.63
2018-01-31T05:25:03.731Z,1000.62
2018-01-31T05:26:09.243Z,1000.64
2018-01-31T05:27:14.753Z,1000.57
2018-01-31T05:28:20.265Z,1000.63
2018-01-31T05:29:25.771Z,1000.65
2018-01-31T05:30:31.284Z,1000.67
2018-01-31T05:31:36.799Z,1000.60
2018-01-31T05:32:42.311Z,1000.58
2018-01-31T05:33:47.821Z,1000.52
2018-01-31T05:34:53.332Z,1000.59
2018-01-31T05:35:58.846Z,1000.58
2018-01-31T05:37:04.351Z,1000.56
2018-01-31T05:38:09.861Z,1000.52
2018-01-31T05:39:15.366Z,1000.59
2018-01-31T05:40:20.882Z,1000.49
2018-01-31T05:41:26.391Z,1000.52
2018-01-31T05:42:31.910Z,1000.49
2018-01-31T05:43:37.418Z,1000.49
2018-01-31T05:44:42.920Z,1000.36
2018-01-31T05:45:48.432Z,1000.38
2018-01-31T05:46:53.953Z,1000.47
2018-01-31T05:47:59.465Z,1000.42
2018-01-31T05:49:04.962Z,1000.39
2018-01-31T05:50:10.472Z,1000.36
2018-01-31T05:51:15.985Z,1000.34
2018-01-31T05:52:21.503Z,1000.27
2018-01-31T05:53:27.011Z,1000.27
2018-01-31T05:54:32.520Z,1000.29
2018-01-31T05:55:38.035Z,1000.30
2018-01-31T05:56:43.538Z,1000.22
2018-01-31T05:57:49.177Z,1000.24
2018-01-31T05:58:54.564Z,1000.34
2018-01-31T06:00:00.157Z,1000.32
2018-01-31T06:01:05.587Z,1000.29
2018-01-31T06:02:11.097Z,1000.32
2018-01-31T06:03:16.631Z,1000.30
2018-01-31T06:04:22.124Z,1000.20
2018-01-31T06:05:27.635Z,1000.28
2018-01-31T06:06:33.146Z,1000.25
2018-01-31T06:07:38.655Z,1000.24
2018-01-31T06:08:44.160Z,1000.21
2018-01-31T06:09:49.670Z,1000.19
2018-01-31T06:10:55.185Z,1000.18
2018-01-31T06:12:00.691Z,1000.17
2018-01-31T06:13:06.224Z,1000.15
2018-01-31T06:14:11.722Z,1000.16
2018-01-31T06:15:17.232Z,1000.22
2018-01-31T06:16:22.744Z,1000.17
2018-01-31T06:17:28.249Z,1000.19
2018-01-31T06:18:33.767Z,1000.10
2018-01-31T06:19:39.270Z,1000.15
2018-01-31T06:20:44.780Z,1000.08
2018-01-31T06:21:50.290Z,1000.05
2018-01-31T06:22:55.804Z,1000.03
2018-01-31T06:24:01.313Z,1000.06
2018-01-31T06:25:06.826Z,1000.03
2018-01-31T06:26:12.339Z,1000.04
2018-01-31T06:27:17.849Z,1000.00
2018-01-31T06:28:23.426Z,1000.00
2018-01-31T06:29:28.868Z,1000.00
2018-01-31T06:30:34.377Z,999.92
2018-01-31T06:31:39.899Z,999.93
2018-01-31T06:32:45.402Z,999.76
2018-01-31T06:33:50.909Z,999.86
2018-01-31T06:34:56.421Z,999.88
2018-01-31T06:36:01.932Z,999.85
2018-01-31T06:37:07.446Z,999.76
2018-01-31T06:38:12.978Z,999.80
2018-01-31T06:39:18.465Z,999.86
2018-01-31T06:40:23.981Z,999.73
2018-01-31T06:41:29.487Z,999.64
2018-01-31T06:42:34.999Z,999.69
2018-01-31T06:43:40.517Z,999.57
2018-01-31T06:44:46.023Z,999.61
2018-01-31T06:45:51.538Z,999.56
2018-01-31T06:46:57.049Z,999.50
2018-01-31T06:48:02.550Z,999.50
2018-01-31T06:49:08.068Z,999.49
2018-01-31T06:50:13.572Z,999.48
2018-01-31T06:51:19.098Z,999.44
2018-01-31T06:52:24.605Z,999.43
2018-01-31T06:53:30.108Z,999.44
2018-01-31T06:54:35.618Z,999.49
2018-01-31T06:55:41.140Z,999.38
2018-01-31T06:56:46.641Z,999.35
2018-01-31T06:57:52.151Z,999.35
2018-01-31T06:58:57.665Z,999.32
2018-01-31T07:00:03.210Z,999.23
2018-01-31T07:01:08.726Z,999.31
2018-01-31T07:02:14.195Z,999.29
2018-01-31T07:03:19.704Z,999.14
2018-01-31T07:04:25.217Z,999.20
2018-01-31T07:05:30.729Z,999.14
2018-01-31T07:06:36.238Z,999.16
2018-01-31T07:07:41.758Z,999.13
2018-01-31T07:08:47.261Z,999.10
2018-01-31T07:09:52.771Z,999.15
2018-01-31T07:10:58.281Z,999.11
2018-01-31T07:12:03.790Z,998.99
2018-01-31T07:13:09.305Z,999.03
2018-01-31T07:14:14.823Z,999.06
2018-01-31T07:15:20.325Z,999.01
2018-01-31T07:16:25.840Z,999.02
2018-01-31T07:17:31.349Z,998.98
2018-01-31T07:18:36.856Z,999.00
2018-01-31T07:19:42.368Z,998.98
2018-01-31T07:20:47.877Z,998.98
2018-01-31T07:21:53.418Z,998.96
2018-01-31T07:22:58.901Z,998.91
2018-01-31T07:24:04.421Z,998.95
2018-01-31T07:25:09.923Z,998.98
2018-01-31T07:26:15.448Z,998.95
2018-01-31T07:27:20.945Z,998.88
2018-01-31T07:28:26.455Z,998.87
2018-01-31T07:29:31.972Z,998.91
2018-01-31T07:30:37.483Z,998.77
2018-01-31T07:31:42.988Z,998.90
2018-01-31T07:32:48.506Z,998.82
2018-01-31T07:33:54.012Z,998.78
2018-01-31T07:34:59.520Z,998.77
2018-01-31T07:36:05.034Z,998.73
2018-01-31T07:37:10.553Z,998.71
2018-01-31T07:38:16.062Z,998.68
2018-01-31T07:39:21.564Z,998.61
2018-01-31T07:40:27.075Z,998.62
2018-01-31T07:41:32.585Z,998.58
2018-01-31T07:42:38.098Z,998.56
2018-01-31T07:43:43.606Z,998.62
2018-01-31T07:44:49.129Z,998.61
2018-01-31T07:45:54.630Z,998.48
2018-01-31T07:47:00.150Z,998.58
2018-01-31T07:48:05.653Z,998.55
2018-01-31T07:49:11.165Z,998.59
2018-01-31T07:50:16.678Z,998.56
2018-01-31T07:51:22.188Z,998.56
2018-01-31T07:52:27.696Z,998.61
2018-01-31T07:53:33.210Z,998.53
2018-01-31T07:54:38.722Z,998.59
2018-01-31T07:55:44.243Z,998.50
2018-01-31T07:56:49.747Z,998.39
2018-01-31T07:57:55.255Z,998.37
2018-01-31T07:59:00.764Z,998.34
2018-01-31T08:00:06.274Z,998.36
2018-01-31T08:01:11.790Z,998.33
2018-01-31T08:02:17.302Z,998.33
2018-01-31T08:03:22.810Z,998.35
2018-01-31T08:04:28.321Z,998.23
2018-01-31T08:05:33.831Z,998.23
2018-01-31T08:06:39.341Z,998.17
2018-01-31T08:07:44.870Z,998.11
2018-01-31T08:08:50.366Z,998.13
2018-01-31T08:09:55.877Z,998.12
2018-01-31T08:11:01.394Z,998.19
2018-01-31T08:12:06.894Z,998.07
2018-01-31T08:13:12.409Z,998.10
2018-01-31T08:14:17.921Z,997.88
2018-01-31T08:15:23.438Z,997.93
2018-01-31T08:16:28.939Z,997.90
2018-01-31T08:17:34.449Z,997.94
2018-01-31T08:18:39.963Z,997.95
2018-01-31T08:19:45.483Z,997.87
2018-01-31T08:20:50.988Z,997.85
2018-01-31T08:21:56.504Z,997.82
2018-01-31T08:23:02.009Z,997.82
2018-01-31T08:24:07.520Z,997.84
2018-01-31T08:25:13.086Z,997.80
2018-01-31T08:26:18.540Z,997.82
2018-01-31T08:27:24.055Z,997.82
2018-01-31T08:28:29.571Z,997.82
2018-01-31T08:29:35.075Z,997.69
2018-01-31T08:30:40.593Z,997.74
2018-01-31T08:31:46.097Z,997.77
2018-01-31T08:32:51.618Z,997.79
2018-01-31T08:33:57.118Z,997.66
2018-01-31T08:35:02.629Z,997.68
2018-01-31T08:36:08.139Z,997.65
2018-01-31T08:37:13.672Z,997.74
2018-01-31T08:38:19.169Z,997.65
2018-01-31T08:39:24.674Z,997.64
2018-01-31T08:40:30.189Z,997.58
2018-01-31T08:41:35.707Z,997.62
2018-01-31T08:42:41.207Z,997.57
2018-01-31T08:43:46.721Z,997.68
2018-01-31T08:44:52.228Z,997.57
2018-01-31T08:45:57.741Z,997.63
2018-01-31T08:47:03.256Z,997.50
2018-01-31T08:48:08.759Z,997.55
2018-01-31T08:49:14.273Z,997.51
2018-01-31T08:50:19.784Z,997.42
2018-01-31T08:51:25.309Z,997.47
2018-01-31T08:52:30.808Z,997.52
2018-01-31T08:53:36.323Z,997.43
2018-01-31T08:54:41.832Z,997.44
2018-01-31T08:55:47.346Z,997.33
2018-01-31T08:56:52.854Z,997.38
2018-01-31T08:57:58.362Z,997.41
2018-01-31T08:59:03.870Z,997.41
2018-01-31T09:00:09.384Z,997.32
2018-01-31T09:01:14.899Z,997.30
2018-01-31T09:02:20.415Z,997.30
2018-01-31T09:03:25.916Z,997.24
2018-01-31T09:04:31.431Z,997.28
2018-01-31T09:05:36.944Z,997.22
2018-01-31T09:06:42.448Z,997.24
2018-01-31T09:07:47.978Z,997.20
2018-01-31T09:08:53.478Z,997.19
2018-01-31T09:09:58.996Z,997.15
2018-01-31T09:11:04.498Z,997.11
2018-01-31T09:12:10.006Z,997.14
2018-01-31T09:13:15.518Z,997.15
2018-01-31T09:14:21.026Z,997.16
2018-01-31T09:15:26.555Z,997.07
2018-01-31T09:16:32.049Z,997.13
2018-01-31T09:17:37.560Z,997.09
2018-01-31T09:18:43.071Z,997.13
2018-01-31T09:19:48.589Z,997.12
2018-01-31T09:20:54.096Z,997.00
2018-01-31T09:21:59.606Z,996.98
2018-01-31T09:23:05.120Z,997.06
2018-01-31T09:24:10.639Z,996.95
2018-01-31T09:25:16.138Z,996.96
2018-01-31T09:26:21.650Z,996.99
2018-01-31T09:27:27.158Z,996.93
2018-01-31T09:28:32.679Z,996.88
2018-01-31T09:29:38.186Z,996.86
2018-01-31T09:30:43.703Z,996.83
2018-01-31T09:31:49.215Z,996.86
2018-01-31T09:32:54.716Z,996.81
2018-01-31T09:34:00.228Z,996.75
2018-01-31T09:35:05.743Z,996.72
2018-01-31T09:36:11.249Z,996.76
2018-01-31T09:37:16.774Z,996.75
2018-01-31T09:38:22.273Z,996.64
2018-01-31T09:39:27.797Z,996.74
2018-01-31T09:40:33.294Z,996.74
2018-01-31T09:41:38.805Z,996.71
2018-01-31T09:42:44.320Z,996.71
2018-01-31T09:43:49.837Z,996.68
2018-01-31T09:44:55.343Z,996.68
2018-01-31T09:46:00.852Z,996.69
2018-01-31T09:47:06.362Z,996.66
2018-01-31T09:48:11.876Z,996.68
2018-01-31T09:49:17.396Z,996.62
2018-01-31T09:50:22.899Z,996.67
2018-01-31T09:51:28.408Z,996.68
2018-01-31T09:52:34.937Z,996.56
2018-01-31T09:53:39.433Z,996.69
2018-01-31T09:54:44.957Z,996.60
2018-01-31T09:55:50.458Z,996.64
2018-01-31T09:56:55.963Z,996.62
2018-01-31T09:58:01.477Z,996.55
2018-01-31T09:59:06.988Z,996.57
2018-01-31T10:00:12.504Z,996.63
2018-01-31T10:01:18.019Z,996.64
2018-01-31T10:02:23.520Z,996.66
2018-01-31T10:03:29.031Z,996.52
2018-01-31T10:04:34.545Z,996.55
2018-01-31T10:05:40.063Z,996.61
2018-01-31T10:06:45.572Z,996.58
2018-01-31T10:07:51.078Z,996.59
2018-01-31T10:08:56.593Z,996.55
2018-01-31T10:10:02.109Z,996.48
2018-01-31T10:11:07.614Z,996.44
2018-01-31T10:12:13.128Z,996.45
2018-01-31T10:13:18.639Z,996.44
2018-01-31T10:14:24.157Z,996.40
2018-01-31T10:15:29.661Z,996.36
2018-01-31T10:16:35.173Z,996.42
2018-01-31T10:17:40.678Z,996.34
2018-01-31T10:18:46.198Z,996.30
2018-01-31T10:19:51.699Z,996.20
2018-01-31T10:20:57.228Z,996.27
2018-01-31T10:22:02.727Z,996.27
2018-01-31T10:23:08.232Z,996.26
2018-01-31T10:24:13.749Z,996.23
2018-01-31T10:25:19.257Z,996.16
2018-01-31T10:26:24.768Z,996.18
2018-01-31T10:27:30.279Z,996.10
2018-01-31T10:28:35.796Z,996.09
2018-01-31T10:29:41.300Z,996.12
2018-01-31T10:30:46.818Z,996.01
2018-01-31T10:31:52.322Z,995.99
2018-01-31T10:32:57.836Z,995.95
2018-01-31T10:34:03.346Z,995.94
2018-01-31T10:35:08.859Z,995.91
2018-01-31T10:36:14.382Z,995.92
2018-01-31T10:37:19.882Z,995.90
2018-01-31T10:38:25.446Z,995.87
2018-01-31T10:39:30.909Z,995.91
2018-01-31T10:40:36.411Z,995.85
2018-01-31T10:41:41.925Z,995.85
2018-01-31T10:42:47.449Z,995.82
2018-01-31T10:43:52.950Z,995.70
2018-01-31T10:44:58.463Z,995.71
2018-01-31T10:46:03.972Z,995.71
2018-01-31T10:47:09.482Z,995.70
2018-01-31T10:48:15.009Z,995.70
2018-01-31T10:49:20.502Z,995.59
2018-01-31T10:50:26.021Z,995.54
2018-01-31T10:51:31.536Z,995.58
2018-01-31T10:52:37.038Z,995.45
2018-01-31T10:58:04.603Z,995.36
2018-01-31T10:59:10.102Z,995.34
2018-01-31T11:00:15.633Z,995.23
2018-01-31T11:01:21.137Z,995.29
2018-01-31T11:02:27.674Z,995.19
2018-01-31T11:03:32.154Z,995.23
2018-01-31T11:04:37.656Z,995.23
2018-01-31T11:05:43.171Z,995.20
2018-01-31T11:06:48.679Z,995.17
2018-01-31T11:07:54.193Z,995.12
2018-01-31T11:08:59.710Z,995.07
2018-01-31T11:10:05.214Z,995.02
2018-01-31T11:11:10.725Z,995.12
2018-01-31T11:12:16.239Z,995.04
2018-01-31T11:13:21.752Z,995.02
2018-01-31T11:14:27.256Z,995.02
2018-01-31T11:15:32.777Z,994.94
2018-01-31T11:16:38.285Z,994.98
2018-01-31T11:17:43.795Z,994.91
2018-01-31T11:18:49.303Z,994.89
2018-01-31T11:19:54.815Z,994.94
2018-01-31T11:21:00.329Z,994.93
2018-01-31T11:22:05.838Z,994.97
2018-01-31T11:23:11.351Z,994.88
2018-01-31T11:24:16.860Z,994.88
2018-01-31T11:25:22.373Z,994.82
2018-01-31T11:26:27.889Z,994.83
2018-01-31T11:27:33.401Z,994.79
2018-01-31T11:28:38.906Z,994.76
2018-01-31T11:29:44.416Z,994.62
2018-01-31T11:30:49.936Z,994.64
2018-01-31T11:31:55.441Z,994.64
2018-01-31T11:33:00.947Z,994.64
2018-01-31T11:34:06.470Z,994.60
2018-01-31T11:35:12.055Z,994.56
2018-01-31T11:36:17.487Z,994.50
2018-01-31T11:37:23.008Z,994.48
2018-01-31T11:38:28.522Z,994.53
2018-01-31T11:39:34.028Z,994.50
2018-01-31T11:40:39.531Z,994.52
2018-01-31T11:41:45.039Z,994.51
2018-01-31T11:42:50.548Z,994.52
2018-01-31T11:43:56.070Z,994.40
2018-01-31T11:45:01.573Z,994.39
2018-01-31T11:46:07.088Z,994.48
2018-01-31T11:47:12.606Z,994.42
2018-01-31T11:48:18.110Z,994.43
2018-01-31T11:49:23.621Z,994.37
2018-01-31T11:50:29.139Z,994.34
2018-01-31T11:51:34.639Z,994.32
2018-01-31T11:52:40.166Z,994.35
2018-01-31T11:53:45.663Z,994.31
2018-01-31T11:54:51.178Z,994.23
2018-01-31T11:55:56.685Z,994.12
2018-01-31T11:57:02.201Z,994.22
2018-01-31T11:58:07.708Z,994.16
2018-01-31T11:59:13.219Z,994.16
2018-01-31T12:00:18.733Z,994.14
2018-01-31T12:01:24.241Z,994.09
2018-01-31T12:02:29.758Z,994.05
2018-01-31T12:03:35.258Z,994.12
2018-01-31T12:04:40.769Z,994.05
2018-01-31T12:05:46.282Z,994.07
2018-01-31T12:06:51.796Z,994.00
2018-01-31T12:07:57.308Z,994.00
2018-01-31T12:09:02.838Z,994.01
2018-01-31T12:10:08.330Z,993.91
2018-01-31T12:11:13.836Z,993.87
2018-01-31T12:12:19.359Z,993.92
2018-01-31T12:13:24.859Z,993.82
2018-01-31T12:14:30.380Z,993.87
2018-01-31T12:15:35.880Z,993.94
2018-01-31T12:16:41.398Z,993.89
2018-01-31T12:17:46.922Z,993.90
2018-01-31T12:18:52.417Z,993.85
2018-01-31T12:19:57.933Z,993.81
2018-01-31T12:21:03.447Z,993.87
2018-01-31T12:22:08.950Z,993.84
2018-01-31T12:23:14.456Z,993.75
2018-01-31T12:24:19.968Z,993.63
2018-01-31T12:25:25.478Z,993.73
2018-01-31T12:26:30.988Z,993.70
2018-01-31T12:27:36.505Z,993.69
2018-01-31T12:28:42.010Z,993.81
2018-01-31T12:29:47.539Z,993.55
2018-01-31T12:30:53.034Z,993.52
2018-01-31T12:31:58.547Z,993.56
2018-01-31T12:33:04.057Z,993.48
2018-01-31T12:34:09.563Z,993.59
2018-01-31T12:35:15.078Z,993.44
2018-01-31T12:36:20.586Z,993.41
2018-01-31T12:37:26.098Z,993.35
2018-01-31T12:38:31.606Z,993.30
2018-01-31T12:39:37.123Z,993.27
2018-01-31T12:40:42.632Z,993.34
2018-01-31T12:41:48.140Z,993.29
2018-01-31T12:42:53.657Z,993.24
2018-01-31T12:43:59.158Z,993.30
2018-01-31T12:45:04.669Z,993.26
2018-01-31T12:46:10.179Z,993.22
2018-01-31T12:47:15.691Z,993.32
2018-01-31T12:48:21.203Z,993.27
2018-01-31T12:49:26.724Z,993.20
2018-01-31T12:50:32.231Z,993.18
2018-01-31T12:51:37.736Z,993.14
2018-01-31T12:52:43.253Z,993.06
2018-01-31T12:53:48.758Z,993.11
2018-01-31T12:54:54.269Z,993.17
2018-01-31T12:55:59.824Z,993.18
2018-01-31T12:57:05.287Z,993.11
2018-01-31T12:58:10.837Z,993.05
2018-01-31T12:59:16.311Z,993.07
2018-01-31T13:00:21.817Z,992.98
2018-01-31T13:01:27.331Z,992.96
2018-01-31T13:02:32.848Z,992.95
2018-01-31T13:03:38.350Z,992.86
2018-01-31T13:04:43.861Z,992.91
2018-01-31T13:05:49.370Z,992.96
2018-01-31T13:06:54.883Z,992.87
2018-01-31T13:08:00.402Z,992.91
2018-01-31T13:09:05.942Z,992.80
2018-01-31T13:10:11.420Z,992.82
2018-01-31T13:11:16.927Z,992.89
2018-01-31T13:12:22.441Z,992.81
2018-01-31T13:13:27.945Z,992.75
2018-01-31T13:14:33.460Z,992.74
2018-01-31T13:15:38.975Z,992.67
2018-01-31T13:16:44.481Z,992.70
2018-01-31T13:17:49.992Z,992.73
2018-01-31T13:18:55.499Z,992.68
2018-01-31T13:20:01.017Z,992.66
2018-01-31T13:21:06.532Z,992.65
2018-01-31T13:22:12.031Z,992.69
2018-01-31T13:23:17.548Z,992.70
2018-01-31T13:24:23.055Z,992.72
2018-01-31T13:25:28.569Z,992.84
2018-01-31T13:26:34.081Z,992.74
2018-01-31T13:27:39.588Z,992.73
2018-01-31T13:28:45.104Z,992.68
2018-01-31T13:29:50.616Z,992.70
2018-01-31T13:30:56.132Z,992.81
2018-01-31T13:32:01.627Z,992.65
2018-01-31T13:33:07.154Z,992.63
2018-01-31T13:34:12.679Z,992.68
2018-01-31T13:35:18.160Z,992.59
2018-01-31T13:36:23.678Z,992.43
2018-01-31T13:37:29.185Z,992.51
2018-01-31T13:38:34.759Z,992.54
2018-01-31T13:39:40.211Z,992.60
2018-01-31T13:40:45.730Z,992.53
2018-01-31T13:41:51.236Z,992.44
2018-01-31T13:42:56.740Z,992.50
2018-01-31T13:44:02.254Z,992.38
2018-01-31T13:45:07.755Z,992.44
2018-01-31T13:46:13.267Z,992.34
2018-01-31T13:47:18.787Z,992.31
2018-01-31T13:48:24.300Z,992.33
2018-01-31T13:49:29.805Z,992.41
2018-01-31T13:50:35.310Z,992.35
2018-01-31T13:51:40.822Z,992.28
2018-01-31T13:52:46.336Z,992.34
2018-01-31T13:53:51.838Z,992.32
2018-01-31T13:54:57.351Z,992.30
2018-01-31T13:56:02.870Z,992.29
2018-01-31T13:57:08.392Z,992.27
2018-01-31T13:58:13.905Z,992.22
2018-01-31T13:59:19.403Z,992.26
2018-01-31T14:00:24.905Z,992.19
2018-01-31T14:01:30.414Z,992.17
2018-01-31T14:02:35.928Z,992.12
2018-01-31T14:03:41.434Z,992.05
2018-01-31T14:04:46.949Z,992.09
2018-01-31T14:05:52.460Z,992.03
2018-01-31T14:06:57.966Z,992.02
2018-01-31T14:08:03.493Z,991.98
2018-01-31T14:09:08.987Z,991.96
2018-01-31T14:10:14.499Z,991.82
2018-01-31T14:11:20.012Z,991.97
2018-01-31T14:12:25.522Z,991.87
2018-01-31T14:13:31.038Z,991.85
2018-01-31T14:14:36.547Z,991.87
2018-01-31T14:15:42.051Z,991.82
2018-01-31T14:16:47.565Z,991.76
2018-01-31T14:17:53.073Z,991.76
2018-01-31T14:18:58.580Z,991.77
2018-01-31T14:20:04.089Z,991.74
2018-01-31T14:21:09.600Z,991.82
2018-01-31T14:22:15.110Z,991.70
2018-01-31T14:23:20.620Z,991.59
2018-01-31T14:24:26.129Z,991.61
2018-01-31T14:25:31.653Z,991.63
2018-01-31T14:26:37.150Z,991.58
2018-01-31T14:27:42.660Z,991.51
2018-01-31T14:28:48.184Z,991.50
2018-01-31T14:29:53.689Z,991.59
2018-01-31T14:30:59.199Z,991.60
2018-01-31T14:32:04.706Z,991.50
2018-01-31T14:33:10.219Z,991.59
2018-01-31T14:34:15.728Z,991.54
2018-01-31T14:35:21.239Z,991.45
2018-01-31T14:36:26.752Z,991.52
2018-01-31T14:37:32.262Z,991.47
2018-01-31T14:38:37.767Z,991.45
2018-01-31T14:39:43.282Z,991.42
2018-01-31T14:40:48.782Z,991.41
2018-01-31T14:41:54.296Z,991.46
2018-01-31T14:42:59.803Z,991.34
2018-01-31T14:44:05.316Z,991.46
2018-01-31T14:45:10.837Z,991.43
2018-01-31T14:46:16.337Z,991.41
2018-01-31T14:47:21.844Z,991.42
2018-01-31T14:48:27.356Z,991.36
2018-01-31T14:49:32.868Z,991.40
2018-01-31T14:50:38.375Z,991.53
2018-01-31T14:51:43.883Z,991.39
2018-01-31T14:52:49.400Z,991.51
2018-01-31T14:53:54.916Z,991.46
2018-01-31T14:55:00.415Z,991.51
2018-01-31T14:56:05.933Z,991.48
2018-01-31T14:57:11.431Z,991.58
2018-01-31T14:58:16.951Z,991.59
2018-01-31T14:59:22.456Z,991.54
2018-01-31T15:00:27.960Z,991.50
2018-01-31T15:01:33.473Z,991.52
2018-01-31T15:02:38.982Z,991.47
2018-01-31T15:03:44.496Z,991.51
2018-01-31T15:04:50.009Z,991.45
2018-01-31T15:05:55.513Z,991.42
2018-01-31T15:07:01.026Z,991.41
2018-01-31T15:08:06.531Z,991.47
2018-01-31T15:09:12.042Z,991.40
2018-01-31T15:10:17.561Z,991.46
2018-01-31T15:11:23.072Z,991.42
2018-01-31T15:12:28.581Z,991.52
2018-01-31T15:13:34.103Z,991.54
2018-01-31T15:14:39.600Z,991.53
2018-01-31T15:15:45.103Z,991.46
2018-01-31T15:16:50.612Z,991.50
2018-01-31T15:17:56.120Z,991.49
2018-01-31T15:19:01.635Z,991.49
2018-01-31T15:20:07.141Z,991.50
2018-01-31T15:21:12.652Z,991.47
2018-01-31T15:22:18.161Z,991.40
2018-01-31T15:23:23.670Z,991.30
2018-01-31T15:24:29.184Z,991.33